createdAt,value
2018-01-30T00:01:45.131Z,18.87
2018-01-30T00:04:13.772Z,19.57
2018-01-30T00:06:42.267Z,18.20
2018-01-30T00:09:10.770Z,18.07
2018-01-30T00:11:39.402Z,19.97
2018-01-30T00:14:08.662Z,23.80
2018-01-30T00:16:37.151Z,20.37
2018-01-30T00:19:05.844Z,16.63
2018-01-30T00:21:34.338Z,25.20
2018-01-30T00:24:02.856Z,21.67
2018-01-30T00:26:31.592Z,18.77
2018-01-30T00:29:00.091Z,21.33
2018-01-30T00:31:29.422Z,19.47
2018-01-30T00:33:57.960Z,18.80
2018-01-30T00:36:26.505Z,19.63
2018-01-30T00:38:54.999Z,18.67
2018-01-30T00:41:23.635Z,20.57
2018-01-30T00:43:52.899Z,18.23
2018-01-30T00:46:21.390Z,19.10
2018-01-30T00:48:50.198Z,18.97
2018-01-30T00:51:19.519Z,22.83
2018-01-30T00:53:48.011Z,24.77
2018-01-30T00:56:16.554Z,24.77
2018-01-30T00:58:45.807Z,27.50
2018-01-30T01:01:14.346Z,25.00
2018-01-30T01:03:43.663Z,22.80
2018-01-30T01:06:12.979Z,21.13
2018-01-30T01:08:41.471Z,26.57
2018-01-30T01:11:10.011Z,28.23
2018-01-30T01:13:39.287Z,21.53
2018-01-30T01:16:07.980Z,16.90
2018-01-30T01:18:36.748Z,14.63
2018-01-30T01:21:05.239Z,12.23
2018-01-30T01:23:33.737Z,12.80
2018-01-30T01:26:02.547Z,10.80
2018-01-30T01:28:31.793Z,12.37
2018-01-30T01:31:00.276Z,12.80
2018-01-30T01:33:28.828Z,10.73
2018-01-30T01:35:57.325Z,9.20
2018-01-30T01:38:25.876Z,10.17
2018-01-30T01:40:55.570Z,9.77
2018-01-30T01:43:24.904Z,9.80
2018-01-30T01:45:53.387Z,9.97
2018-01-30T01:48:21.935Z,10.17
2018-01-30T01:50:51.240Z,10.13
2018-01-30T01:53:19.720Z,10.17
2018-01-30T01:55:49.288Z,11.13
2018-01-30T01:58:17.783Z,12.17
2018-01-30T02:00:46.279Z,11.83
2018-01-30T02:03:14.822Z,13.30
2018-01-30T02:05:43.315Z,15.67
2018-01-30T02:08:11.802Z,16.33
2018-01-30T02:10:40.712Z,14.47
2018-01-30T02:13:09.203Z,24.87
2018-01-30T02:15:38.475Z,30.13
2018-01-30T02:18:07.063Z,34.67
2018-01-30T02:20:35.554Z,41.93
2018-01-30T02:23:04.032Z,50.30
2018-01-30T02:25:32.572Z,38.70
2018-01-30T02:28:01.125Z,10.00
2018-01-30T02:30:30.430Z,7.10
2018-01-30T02:32:59.739Z,6.60
2018-01-30T02:35:28.236Z,7.13
2018-01-30T02:37:56.730Z,7.83
2018-01-30T02:40:25.263Z,8.60
2018-01-30T02:42:54.521Z,8.63
2018-01-30T02:45:23.007Z,8.77
2018-01-30T02:47:51.852Z,8.00
2018-01-30T02:50:20.413Z,8.13
2018-01-30T02:52:49.714Z,8.87
2018-01-30T02:55:19.284Z,7.30
2018-01-30T02:57:47.833Z,7.80
2018-01-30T03:00:16.367Z,6.10
2018-01-30T03:02:44.955Z,5.20
2018-01-30T03:05:13.434Z,5.97
2018-01-30T03:07:41.991Z,5.43
2018-01-30T03:10:10.531Z,6.63
2018-01-30T03:12:39.795Z,6.80
2018-01-30T03:15:08.283Z,8.00
2018-01-30T03:17:36.818Z,9.17
2018-01-30T03:20:05.320Z,9.30
2018-01-30T03:22:33.867Z,8.50
2018-01-30T03:25:02.740Z,6.90
2018-01-30T03:27:32.043Z,7.27
2018-01-30T03:30:01.304Z,8.63
2018-01-30T03:32:29.855Z,34.20
2018-01-30T03:34:58.349Z,23.43
2018-01-30T03:37:26.906Z,16.77
2018-01-30T03:39:55.500Z,15.53
2018-01-30T03:42:23.988Z,9.03
2018-01-30T03:44:52.499Z,17.10
2018-01-30T03:47:21.096Z,12.03
2018-01-30T03:49:49.595Z,8.57
2018-01-30T03:52:18.872Z,8.50
2018-01-30T03:54:47.468Z,8.07
2018-01-30T03:57:16.795Z,7.40
2018-01-30T03:59:45.275Z,8.83
2018-01-30T04:02:14.678Z,7.63
2018-01-30T04:04:43.239Z,9.23
2018-01-30T04:07:11.740Z,10.30
2018-01-30T04:09:41.155Z,13.70
2018-01-30T04:12:09.715Z,14.03
2018-01-30T04:14:39.007Z,15.93
2018-01-30T04:17:07.762Z,13.87
2018-01-30T04:19:36.256Z,14.07
2018-01-30T04:22:04.759Z,15.83
2018-01-30T04:24:34.063Z,16.67
2018-01-30T04:27:03.319Z,17.73
2018-01-30T04:29:31.806Z,28.93
2018-01-30T04:32:00.527Z,21.37
2018-01-30T04:34:29.795Z,22.20
2018-01-30T04:36:58.283Z,23.93
2018-01-30T04:39:26.824Z,23.60
2018-01-30T04:41:55.384Z,25.00
2018-01-30T04:44:24.647Z,25.00
2018-01-30T04:46:53.568Z,25.97
2018-01-30T04:49:22.895Z,24.70
2018-01-30T04:51:51.383Z,26.43
2018-01-30T04:54:20.127Z,24.83
2018-01-30T04:56:48.632Z,26.90
2018-01-30T04:59:17.123Z,26.73
2018-01-30T05:01:45.666Z,26.70
2018-01-30T05:04:14.167Z,31.17
2018-01-30T05:06:43.428Z,35.30
2018-01-30T05:09:12.114Z,35.27
2018-01-30T05:11:40.674Z,41.23
2018-01-30T05:14:09.295Z,56.00
2018-01-30T05:16:38.011Z,52.23
2018-01-30T05:19:07.293Z,52.83
2018-01-30T05:21:35.834Z,56.23
2018-01-30T05:24:04.409Z,62.50
2018-01-30T05:26:32.975Z,53.67
2018-01-30T05:29:01.473Z,38.70
2018-01-30T05:31:30.115Z,40.10
2018-01-30T05:33:59.374Z,31.83
2018-01-30T05:36:27.927Z,30.40
2018-01-30T05:38:58.951Z,28.60
2018-01-30T05:41:28.275Z,28.33
2018-01-30T05:43:56.832Z,27.00
2018-01-30T05:46:26.143Z,26.53
2018-01-30T05:48:55.466Z,27.17
2018-01-30T05:51:24.026Z,29.07
2018-01-30T05:53:52.619Z,24.73
2018-01-30T05:56:21.116Z,24.73
2018-01-30T05:58:49.615Z,17.03
2018-01-30T06:01:18.439Z,10.77
2018-01-30T06:03:47.703Z,12.40
2018-01-30T06:06:16.204Z,11.33
2018-01-30T06:08:44.743Z,8.30
2018-01-30T06:11:13.232Z,10.67
2018-01-30T06:13:41.714Z,5.83
2018-01-30T06:16:10.310Z,6.33
2018-01-30T06:18:38.851Z,5.63
2018-01-30T06:21:07.330Z,6.77
2018-01-30T06:23:37.048Z,9.27
2018-01-30T06:26:05.616Z,11.33
2018-01-30T06:28:34.935Z,16.13
2018-01-30T06:31:03.470Z,11.63
2018-01-30T06:33:32.094Z,16.20
2018-01-30T06:36:01.543Z,14.87
2018-01-30T06:38:30.567Z,10.23
2018-01-30T06:40:59.934Z,11.70
2018-01-30T06:43:28.419Z,18.13
2018-01-30T06:45:57.110Z,25.23
2018-01-30T06:48:26.243Z,29.97
2018-01-30T06:50:55.491Z,27.57
2018-01-30T06:53:24.223Z,20.03
2018-01-30T06:55:54.252Z,20.90
2018-01-30T06:58:23.524Z,19.93
2018-01-30T07:00:52.120Z,21.80
2018-01-30T07:03:21.439Z,20.47
2018-01-30T07:05:50.712Z,18.00
2018-01-30T07:08:19.463Z,14.60
2018-01-30T07:10:47.951Z,7.73
2018-01-30T07:13:16.433Z,7.23
2018-01-30T07:15:45.022Z,6.73
2018-01-30T07:18:13.523Z,7.63
2018-01-30T07:20:42.081Z,7.30
2018-01-30T07:23:10.856Z,7.13
2018-01-30T07:25:39.562Z,13.93
2018-01-30T07:28:08.040Z,9.30
2018-01-30T07:30:36.882Z,11.67
2018-01-30T07:33:06.125Z,8.40
2018-01-30T07:35:34.611Z,17.43
2018-01-30T07:38:03.244Z,8.23
2018-01-30T07:40:32.598Z,7.97
2018-01-30T07:43:01.088Z,9.03
2018-01-30T07:45:29.684Z,8.80
2018-01-30T07:47:58.187Z,8.77
2018-01-30T07:50:27.439Z,8.93
2018-01-30T07:52:55.976Z,8.93
2018-01-30T07:55:25.255Z,8.70
2018-01-30T07:57:53.753Z,10.37
2018-01-30T08:00:23.305Z,11.87
2018-01-30T08:02:51.814Z,26.37
2018-01-30T08:05:20.407Z,24.60
2018-01-30T08:07:49.899Z,23.20
2018-01-30T08:10:18.497Z,24.17
2018-01-30T08:12:47.048Z,24.23
2018-01-30T08:15:15.833Z,29.23
2018-01-30T08:17:44.324Z,34.70
2018-01-30T08:20:12.823Z,40.77
2018-01-30T08:22:42.299Z,114.70
2018-01-30T08:25:10.856Z,35.27
2018-01-30T08:27:39.403Z,46.20
2018-01-30T08:30:09.126Z,51.40
2018-01-30T08:32:38.450Z,34.30
2018-01-30T08:35:06.986Z,23.07
2018-01-30T08:37:35.679Z,26.93
2018-01-30T08:40:04.173Z,37.63
2018-01-30T08:42:32.728Z,20.17
2018-01-30T08:45:02.131Z,21.03
2018-01-30T08:47:30.692Z,12.63
2018-01-30T08:49:59.979Z,14.27
2018-01-30T08:52:28.775Z,10.87
2018-01-30T08:54:57.280Z,10.07
2018-01-30T08:57:25.834Z,11.50
2018-01-30T08:59:54.670Z,10.77
2018-01-30T09:02:23.216Z,8.83
2018-01-30T09:04:51.715Z,8.83
2018-01-30T09:07:20.255Z,7.40
2018-01-30T09:09:48.745Z,7.30
2018-01-30T09:12:17.240Z,8.97
2018-01-30T09:14:46.119Z,18.73
2018-01-30T09:17:14.620Z,16.33
2018-01-30T09:19:43.247Z,8.13
2018-01-30T09:22:11.783Z,7.93
2018-01-30T09:24:40.274Z,8.60
2018-01-30T09:27:08.792Z,9.73
2018-01-30T09:29:37.443Z,9.53
2018-01-30T09:32:06.702Z,16.90
2018-01-30T09:34:35.972Z,13.43
2018-01-30T09:37:05.050Z,15.97
2018-01-30T09:39:34.311Z,12.53
2018-01-30T09:42:02.837Z,11.80
2018-01-30T09:44:32.147Z,13.00
2018-01-30T09:47:01.059Z,19.57
2018-01-30T09:49:29.838Z,19.87
2018-01-30T09:51:58.633Z,15.20
2018-01-30T09:54:27.318Z,14.77
2018-01-30T09:56:55.816Z,13.80
2018-01-30T09:59:24.911Z,13.80
2018-01-30T10:01:54.228Z,14.03
2018-01-30T10:04:23.491Z,17.40
2018-01-30T10:06:52.759Z,15.43
2018-01-30T10:09:21.252Z,18.03
2018-01-30T10:11:49.747Z,19.87
2018-01-30T10:14:18.508Z,22.93
2018-01-30T10:16:46.999Z,30.40
2018-01-30T10:19:15.495Z,27.90
2018-01-30T10:21:45.028Z,25.67
2018-01-30T10:24:14.319Z,26.47
2018-01-30T10:26:43.583Z,25.53
2018-01-30T10:29:12.119Z,21.83
2018-01-30T10:31:40.616Z,22.03
2018-01-30T10:34:10.074Z,25.50
2018-01-30T10:36:38.711Z,27.13
2018-01-30T10:39:07.217Z,24.40
2018-01-30T10:41:36.620Z,20.47
2018-01-30T10:44:05.930Z,20.23
2018-01-30T10:46:34.431Z,21.13
2018-01-30T10:49:03.691Z,34.17
2018-01-30T10:51:32.438Z,28.53
2018-01-30T10:54:00.933Z,28.67
2018-01-30T10:56:29.611Z,27.93
2018-01-30T10:58:58.150Z,27.70
2018-01-30T11:01:27.412Z,28.37
2018-01-30T11:03:55.903Z,26.93
2018-01-30T11:06:24.548Z,26.63
2018-01-30T11:08:53.290Z,26.40
2018-01-30T11:11:22.742Z,24.07
2018-01-30T11:13:51.659Z,23.20
2018-01-30T11:16:20.421Z,27.17
2018-01-30T11:18:48.920Z,22.50
2018-01-30T11:21:17.632Z,24.23
2018-01-30T11:23:47.092Z,23.67
2018-01-30T11:26:15.585Z,23.33
2018-01-30T11:28:45.826Z,24.93
2018-01-30T11:31:14.580Z,24.10
2018-01-30T11:33:43.075Z,25.00
2018-01-30T11:36:11.784Z,25.17
2018-01-30T11:38:41.039Z,24.10
2018-01-30T11:41:09.529Z,37.37
2018-01-30T11:43:38.115Z,31.27
2018-01-30T11:46:06.639Z,41.73
2018-01-30T11:48:36.069Z,57.70
2018-01-30T11:51:04.619Z,28.63
2018-01-30T11:53:33.985Z,94.07
2018-01-30T11:56:02.479Z,35.83
2018-01-30T11:58:31.028Z,25.30
2018-01-30T12:00:59.526Z,25.60
2018-01-30T12:03:28.213Z,32.63
2018-01-30T12:05:56.759Z,28.77
2018-01-30T12:08:25.485Z,22.43
2018-01-30T12:10:53.978Z,22.53
2018-01-30T12:13:23.562Z,18.07
2018-01-30T12:15:52.055Z,18.47
2018-01-30T12:18:20.547Z,14.57
2018-01-30T12:20:49.087Z,11.00
2018-01-30T12:23:17.579Z,8.73
2018-01-30T12:25:46.070Z,7.50
2018-01-30T12:28:14.971Z,7.47
2018-01-30T12:30:43.463Z,5.50
2018-01-30T12:33:11.950Z,3.47
2018-01-30T12:35:40.820Z,5.23
2018-01-30T12:38:09.310Z,8.63
2018-01-30T12:40:37.790Z,7.30
2018-01-30T12:43:06.484Z,4.30
2018-01-30T12:45:34.984Z,7.47
2018-01-30T12:48:04.304Z,8.67
2018-01-30T12:50:33.119Z,6.23
2018-01-30T12:53:01.672Z,7.37
2018-01-30T12:55:31.104Z,7.30
2018-01-30T12:57:59.951Z,8.17
2018-01-30T13:00:29.211Z,9.30
2018-01-30T13:02:57.763Z,7.90
2018-01-30T13:05:26.294Z,7.93
2018-01-30T13:07:54.797Z,5.37
2018-01-30T13:10:23.367Z,6.07
2018-01-30T13:12:51.914Z,4.63
2018-01-30T13:15:20.407Z,9.77
2018-01-30T13:17:48.903Z,5.33
2018-01-30T13:20:17.448Z,3.13
2018-01-30T13:22:45.946Z,2.70
2018-01-30T13:25:14.487Z,7.13
2018-01-30T13:27:43.120Z,2.63
2018-01-30T13:30:11.612Z,4.63
2018-01-30T13:32:40.107Z,5.53
2018-01-30T13:35:08.711Z,8.37
2018-01-30T13:37:37.231Z,16.10
2018-01-30T13:40:05.730Z,10.87
2018-01-30T13:42:34.710Z,6.57
2018-01-30T13:45:03.264Z,8.20
2018-01-30T13:47:31.820Z,15.90
2018-01-30T13:50:01.314Z,5.93
2018-01-30T13:52:29.872Z,15.80
2018-01-30T13:54:58.425Z,7.70
2018-01-30T13:57:27.275Z,10.37
2018-01-30T13:59:55.783Z,6.27
2018-01-30T14:02:24.344Z,5.80
2018-01-30T14:04:53.663Z,6.30
2018-01-30T14:07:22.920Z,3.90
2018-01-30T14:09:51.423Z,5.13
2018-01-30T14:12:20.808Z,6.07
2018-01-30T14:14:49.369Z,3.90
2018-01-30T14:17:17.930Z,3.60
2018-01-30T14:19:46.577Z,4.23
2018-01-30T14:22:15.081Z,6.17
2018-01-30T14:24:43.578Z,9.07
2018-01-30T14:27:12.199Z,9.50
2018-01-30T14:29:40.740Z,4.57
2018-01-30T14:32:10.063Z,4.70
2018-01-30T14:34:38.686Z,3.70
2018-01-30T14:37:07.276Z,3.90
2018-01-30T14:39:35.832Z,5.93
2018-01-30T14:42:04.747Z,4.33
2018-01-30T14:44:33.247Z,4.63
2018-01-30T14:47:01.744Z,5.90
2018-01-30T14:49:30.444Z,5.10
2018-01-30T14:51:59.695Z,4.93
2018-01-30T14:54:28.192Z,4.87
2018-01-30T14:56:56.829Z,6.23
2018-01-30T14:59:25.336Z,5.50
2018-01-30T15:01:54.657Z,9.70
2018-01-30T15:04:24.024Z,7.57
2018-01-30T15:06:52.588Z,9.60
2018-01-30T15:09:21.153Z,11.50
2018-01-30T15:11:49.765Z,11.43
2018-01-30T15:14:19.092Z,10.63
2018-01-30T15:16:47.658Z,14.50
2018-01-30T15:19:17.036Z,13.03
2018-01-30T15:21:45.605Z,12.83
2018-01-30T15:24:14.176Z,26.07
2018-01-30T15:26:42.924Z,27.10
2018-01-30T15:29:12.252Z,18.57
2018-01-30T15:31:40.815Z,16.87
2018-01-30T15:34:09.689Z,12.83
2018-01-30T15:36:39.017Z,11.60
2018-01-30T15:39:07.577Z,12.57
2018-01-30T15:41:37.330Z,12.73
2018-01-30T15:44:05.889Z,11.50
2018-01-30T15:46:34.457Z,17.53
2018-01-30T15:49:03.068Z,19.23
2018-01-30T15:51:31.627Z,18.90
2018-01-30T15:54:00.976Z,17.80
2018-01-30T15:56:29.969Z,17.70
2018-01-30T15:58:58.543Z,18.80
2018-01-30T16:01:27.110Z,16.00
2018-01-30T16:03:56.123Z,14.37
2018-01-30T16:06:24.684Z,15.40
2018-01-30T16:08:53.241Z,15.17
2018-01-30T16:11:21.844Z,16.10
2018-01-30T16:13:50.423Z,15.17
2018-01-30T16:16:18.983Z,17.10
2018-01-30T16:18:48.753Z,12.70
2018-01-30T16:21:17.312Z,12.57
2018-01-30T16:23:45.872Z,13.00
2018-01-30T16:26:14.484Z,14.00
2018-01-30T16:28:43.044Z,21.23
2018-01-30T16:31:11.633Z,21.43
2018-01-30T16:33:40.255Z,26.33
2018-01-30T16:36:08.837Z,21.57
2018-01-30T16:38:37.536Z,21.77
2018-01-30T16:41:06.518Z,29.93
2018-01-30T16:43:35.097Z,16.30
2018-01-30T16:46:03.684Z,15.80
2018-01-30T16:48:32.321Z,10.90
2018-01-30T16:51:00.893Z,17.03
2018-01-30T16:53:29.463Z,21.53
2018-01-30T16:55:58.101Z,20.67
2018-01-30T16:58:26.700Z,23.20
2018-01-30T17:00:56.112Z,35.90
2018-01-30T17:03:25.689Z,21.30
2018-01-30T17:05:54.260Z,19.70
2018-01-30T17:08:22.821Z,18.43
2018-01-30T17:10:51.612Z,22.43
2018-01-30T17:13:20.173Z,16.60
2018-01-30T17:15:48.753Z,23.57
2018-01-30T17:18:17.364Z,16.47
2018-01-30T17:20:45.940Z,15.93
2018-01-30T17:23:14.521Z,17.57
2018-01-30T17:25:44.038Z,15.50
2018-01-30T17:28:12.605Z,14.57
2018-01-30T17:30:41.935Z,16.63
2018-01-30T17:33:10.552Z,17.50
2018-01-30T17:35:39.119Z,18.03
2018-01-30T17:38:07.698Z,33.27
2018-01-30T17:40:36.600Z,12.00
2018-01-30T17:43:05.170Z,11.30
2018-01-30T17:45:33.751Z,17.20
2018-01-30T17:48:02.736Z,17.90
2018-01-30T17:50:31.317Z,33.10
2018-01-30T17:52:59.884Z,41.07
2018-01-30T17:55:28.501Z,39.63
2018-01-30T17:57:57.072Z,33.97
2018-01-30T18:00:25.636Z,47.40
2018-01-30T18:02:54.441Z,33.37
2018-01-30T18:05:22.998Z,31.90
2018-01-30T18:07:51.553Z,30.90
2018-01-30T18:10:21.204Z,29.07
2018-01-30T18:12:50.525Z,29.07
2018-01-30T18:15:19.088Z,20.23
2018-01-30T18:17:47.698Z,28.73
2018-01-30T18:20:16.261Z,37.30
2018-01-30T18:22:44.817Z,40.80
2018-01-30T18:25:14.388Z,47.47
2018-01-30T18:27:42.944Z,37.00
2018-01-30T18:30:11.512Z,39.10
2018-01-30T18:32:40.121Z,37.53
2018-01-30T18:35:08.676Z,57.80
2018-01-30T18:37:37.996Z,40.40
2018-01-30T18:40:06.765Z,68.83
2018-01-30T18:42:35.525Z,62.90
2018-01-30T18:45:04.861Z,49.30
2018-01-30T18:47:33.690Z,40.17
2018-01-30T18:50:02.277Z,41.97
2018-01-30T18:52:30.837Z,72.37
2018-01-30T18:55:00.162Z,66.57
2018-01-30T18:57:28.647Z,35.63
2018-01-30T18:59:57.140Z,48.60
2018-01-30T19:02:25.783Z,65.40
2018-01-30T19:04:54.277Z,27.80
2018-01-30T19:07:22.767Z,80.00
2018-01-30T19:09:51.317Z,59.53
2018-01-30T19:12:19.855Z,72.70
2018-01-30T19:14:48.406Z,35.87
2018-01-30T19:17:16.967Z,60.27
2018-01-30T19:19:45.515Z,106.10
2018-01-30T19:22:14.845Z,105.03
2018-01-30T19:24:43.567Z,73.43
2018-01-30T19:27:12.069Z,39.10
2018-01-30T19:29:40.624Z,31.13
2018-01-30T19:32:09.359Z,26.07
2018-01-30T19:34:37.899Z,16.17
2018-01-30T19:37:06.455Z,27.53
2018-01-30T19:39:35.002Z,21.53
2018-01-30T19:42:03.504Z,24.33
2018-01-30T19:44:32.007Z,22.77
2018-01-30T19:47:00.635Z,34.47
2018-01-30T19:49:29.231Z,29.77
2018-01-30T19:51:58.503Z,33.33
2018-01-30T19:54:27.053Z,25.17
2018-01-30T19:56:55.547Z,23.60
2018-01-30T19:59:24.945Z,18.30
2018-01-30T20:01:54.337Z,20.67
2018-01-30T20:04:22.901Z,20.23
2018-01-30T20:06:52.418Z,26.17
2018-01-30T20:09:21.055Z,22.87
2018-01-30T20:11:49.600Z,22.00
2018-01-30T20:14:18.115Z,30.57
2018-01-30T20:16:47.607Z,26.70
2018-01-30T20:19:16.932Z,44.20
2018-01-30T20:21:45.425Z,30.57
2018-01-30T20:24:14.275Z,24.20
2018-01-30T20:26:45.583Z,21.47
2018-01-30T20:29:14.130Z,19.57
2018-01-30T20:31:42.685Z,19.07
2018-01-30T20:34:11.180Z,16.93
2018-01-30T20:36:40.447Z,17.33
2018-01-30T20:39:09.000Z,17.17
2018-01-30T20:41:37.523Z,27.67
2018-01-30T20:44:06.035Z,38.03
2018-01-30T20:46:35.359Z,31.57
2018-01-30T20:49:03.908Z,33.63
2018-01-30T20:51:33.179Z,21.60
2018-01-30T20:54:01.719Z,22.87
2018-01-30T20:56:30.259Z,23.27
2018-01-30T20:58:59.583Z,29.43
2018-01-30T21:01:28.192Z,26.17
2018-01-30T21:03:56.747Z,24.77
2018-01-30T21:06:25.251Z,22.70
2018-01-30T21:08:54.045Z,19.73
2018-01-30T21:11:22.543Z,18.83
2018-01-30T21:13:51.088Z,15.63
2018-01-30T21:16:20.015Z,16.03
2018-01-30T21:18:48.576Z,13.03
2018-01-30T21:21:17.188Z,15.37
2018-01-30T21:23:45.880Z,11.20
2018-01-30T21:26:14.400Z,12.40
2018-01-30T21:28:43.663Z,13.03
2018-01-30T21:31:12.256Z,13.20
2018-01-30T21:33:40.769Z,15.20
2018-01-30T21:36:10.081Z,14.20
2018-01-30T21:38:38.619Z,16.40
2018-01-30T21:41:07.172Z,14.57
2018-01-30T21:43:35.667Z,12.70
2018-01-30T21:46:04.299Z,13.10
2018-01-30T21:48:33.545Z,9.80
2018-01-30T21:51:02.038Z,11.83
2018-01-30T21:53:30.599Z,11.03
2018-01-30T21:55:59.148Z,10.83
2018-01-30T21:58:27.639Z,11.03
2018-01-30T22:00:56.992Z,10.03
2018-01-30T22:03:25.487Z,9.87
2018-01-30T22:05:53.993Z,10.10
2018-01-30T22:08:23.296Z,10.37
2018-01-30T22:10:52.554Z,11.10
2018-01-30T22:13:21.044Z,9.30
2018-01-30T22:15:49.589Z,10.23
2018-01-30T22:18:18.136Z,9.47
2018-01-30T22:20:47.399Z,10.67
2018-01-30T22:23:15.941Z,9.83
2018-01-30T22:25:44.491Z,10.50
2018-01-30T22:28:13.807Z,10.10
2018-01-30T22:30:43.177Z,10.40
2018-01-30T22:33:11.671Z,11.60
2018-01-30T22:35:40.154Z,10.60
2018-01-30T22:38:08.747Z,11.53
2018-01-30T22:40:38.064Z,12.47
2018-01-30T22:43:06.555Z,14.20
2018-01-30T22:45:35.186Z,12.53
